Time;durP1;ratioP1;P1;durP2;ratioP2;P2;SDS_P1;SDS_P2;PMS_P1;PMS_P2;Temp;Humidity;BMP_temperature;BMP_pressure;BME280_temperature;BME280_humidity;BME280_pressure;Samples;Min_cycle;Max_cycle;Signal;HPM_P1;HPM_P2
2021/06/16 00:00:10;;;;;;;5.90;5.30;;;;;;;;;;5053916;28;20207;-46
2021/06/16 00:02:36;;;;;;;7.78;5.40;;;;;;;;;;5055725;28;20478;-46
2021/06/16 00:05:04;;;;;;;5.80;5.25;;;;;;;;;;5051574;28;20206;-46
2021/06/16 00:07:30;;;;;;;7.18;5.43;;;;;;;;;;5049241;28;20171;-46
2021/06/16 00:09:56;;;;;;;5.90;5.40;;;;;;;;;;5055659;28;20198;-46
2021/06/16 00:12:24;;;;;;;5.80;5.20;;;;;;;;;;5045693;28;20190;-45
2021/06/16 00:14:50;;;;;;;5.93;5.32;;;;;;;;;;5052809;28;20444;-46
2021/06/16 00:17:16;;;;;;;5.55;5.05;;;;;;;;;;5042812;28;20191;-46
2021/06/16 00:19:42;;;;;;;6.10;5.32;;;;;;;;;;5055366;28;20464;-46
2021/06/16 00:22:08;;;;;;;5.07;4.68;;;;;;;;;;5054952;28;20191;-45
2021/06/16 00:24:34;;;;;;;5.80;5.18;;;;;;;;;;5047552;28;20180;-46
2021/06/16 00:27:00;;;;;;;6.63;5.53;;;;;;;;;;5053122;28;20582;-46
2021/06/16 00:29:26;;;;;;;5.70;5.20;;;;;;;;;;5054657;28;20184;-46
2021/06/16 00:31:52;;;;;;;6.10;5.00;;;;;;;;;;5054873;28;20416;-46
2021/06/16 00:34:18;;;;;;;6.68;5.65;;;;;;;;;;5054946;28;20190;-46
2021/06/16 00:36:44;;;;;;;6.45;5.25;;;;;;;;;;5053936;28;20193;-46
2021/06/16 00:39:11;;;;;;;5.53;4.93;;;;;;;;;;5043419;28;20233;-46
2021/06/16 00:41:37;;;;;;;5.25;4.85;;;;;;;;;;5035144;28;20168;-46
2021/06/16 00:44:04;;;;;;;5.03;4.57;;;;;;;;;;5053317;28;20171;-46
2021/06/16 00:46:30;;;;;;;5.43;4.93;;;;;;;;;;5053990;28;20185;-46
2021/06/16 00:48:56;;;;;;;5.60;5.10;;;;;;;;;;5053279;28;20179;-46
2021/06/16 00:51:22;;;;;;;6.22;5.53;;;;;;;;;;5054089;28;20459;-46
2021/06/16 00:53:48;;;;;;;5.50;4.90;;;;;;;;;;5048947;28;20199;-46
2021/06/16 00:56:14;;;;;;;5.57;5.07;;;;;;;;;;5050112;28;20186;-46
2021/06/16 00:58:40;;;;;;;5.22;4.72;;;;;;;;;;5054740;28;20263;-46
2021/06/16 01:01:09;;;;;;;5.30;4.85;;;;;;;;;;5043508;28;20279;-46
2021/06/16 01:03:54;;;;;;;5.53;5.00;;;;;;;;;;5047792;28;20179;-46
2021/06/16 01:06:22;;;;;;;6.50;5.40;;;;;;;;;;5053147;28;20831;-46
2021/06/16 01:09:01;;;;;;;5.30;4.82;;;;;;;;;;5053642;28;20174;-46
2021/06/16 01:11:28;;;;;;;5.95;5.40;;;;;;;;;;5054195;28;20182;-46
2021/06/16 01:13:54;;;;;;;6.00;5.45;;;;;;;;;;5054473;28;20230;-46
2021/06/16 01:16:24;;;;;;;6.90;5.40;;;;;;;;;;5053687;28;20178;-46
2021/06/16 01:18:53;;;;;;;6.10;5.13;;;;;;;;;;5054047;28;20562;-46
2021/06/16 01:21:19;;;;;;;6.22;5.32;;;;;;;;;;5054254;28;20185;-46
2021/06/16 01:24:08;;;;;;;6.10;5.50;;;;;;;;;;5043479;28;20339;-46
2021/06/16 01:26:48;;;;;;;5.72;5.07;;;;;;;;;;5045924;28;20179;-46
2021/06/16 01:29:16;;;;;;;6.40;5.32;;;;;;;;;;5049566;28;20193;-46
2021/06/16 01:31:43;;;;;;;6.90;5.28;;;;;;;;;;5054464;28;20240;-46
2021/06/16 01:34:10;;;;;;;5.60;5.13;;;;;;;;;;5054392;28;20251;-45
2021/06/16 01:36:37;;;;;;;7.03;5.50;;;;;;;;;;5050663;28;20180;-45
2021/06/16 01:39:06;;;;;;;6.10;5.50;;;;;;;;;;5044252;28;20264;-45
2021/06/16 01:41:32;;;;;;;7.55;5.35;;;;;;;;;;5053666;28;20184;-46
2021/06/16 01:43:59;;;;;;;6.05;5.45;;;;;;;;;;5054444;28;20503;-46
2021/06/16 01:46:26;;;;;;;6.32;5.72;;;;;;;;;;5052112;28;20194;-46
2021/06/16 01:48:52;;;;;;;5.50;4.85;;;;;;;;;;5038541;28;20179;-45
2021/06/16 01:51:19;;;;;;;5.65;5.05;;;;;;;;;;5052933;28;20175;-46
2021/06/16 01:53:46;;;;;;;5.40;4.90;;;;;;;;;;5053834;28;20171;-46
2021/06/16 01:56:12;;;;;;;5.22;4.82;;;;;;;;;;5048685;28;20176;-45
2021/06/16 01:58:38;;;;;;;5.97;5.40;;;;;;;;;;5048456;28;20225;-46
2021/06/16 02:01:05;;;;;;;6.30;5.65;;;;;;;;;;5046615;28;20256;-46
2021/06/16 02:03:31;;;;;;;5.82;5.20;;;;;;;;;;5033988;28;20168;-46
2021/06/16 02:05:58;;;;;;;6.53;5.93;;;;;;;;;;5050101;28;20186;-45
2021/06/16 02:08:26;;;;;;;6.65;6.03;;;;;;;;;;5052555;28;20176;-46
2021/06/16 02:10:52;;;;;;;6.72;6.13;;;;;;;;;;5052857;28;20188;-45
2021/06/16 02:13:24;;;;;;;6.28;5.68;;;;;;;;;;5038041;28;20179;-45
2021/06/16 02:15:56;;;;;;;5.88;5.30;;;;;;;;;;5049202;28;20183;-46
2021/06/16 02:18:23;;;;;;;6.50;5.88;;;;;;;;;;5057541;28;20538;-46
2021/06/16 02:20:49;;;;;;;6.50;5.90;;;;;;;;;;5051685;28;20212;-46
2021/06/16 02:23:16;;;;;;;6.15;5.65;;;;;;;;;;5055611;28;20202;-45
2021/06/16 02:25:42;;;;;;;6.43;5.82;;;;;;;;;;5050328;28;20175;-45
2021/06/16 02:28:08;;;;;;;5.72;5.20;;;;;;;;;;5056938;28;20178;-46
2021/06/16 02:30:34;;;;;;;5.68;5.10;;;;;;;;;;5057424;28;20187;-46
2021/06/16 02:33:00;;;;;;;6.40;5.80;;;;;;;;;;5057728;28;20175;-45
2021/06/16 02:35:26;;;;;;;5.95;5.35;;;;;;;;;;5055721;28;20187;-45
2021/06/16 02:37:54;;;;;;;6.05;5.45;;;;;;;;;;5049158;28;20198;-46
2021/06/16 02:40:20;;;;;;;5.95;5.45;;;;;;;;;;5056964;28;20265;-46
2021/06/16 02:42:48;;;;;;;6.13;5.63;;;;;;;;;;5043377;28;20187;-45
2021/06/16 02:45:15;;;;;;;5.78;5.15;;;;;;;;;;5037448;28;20164;-46
2021/06/16 02:47:44;;;;;;;5.78;5.25;;;;;;;;;;5036719;28;20180;-46
2021/06/16 02:50:11;;;;;;;6.03;5.43;;;;;;;;;;5052322;28;20202;-46
2021/06/16 02:52:38;;;;;;;5.03;4.63;;;;;;;;;;5056870;28;20178;-46
2021/06/16 02:55:05;;;;;;;5.55;5.07;;;;;;;;;;5057187;28;20189;-46
2021/06/16 02:57:34;;;;;;;5.47;4.97;;;;;;;;;;5051105;28;20260;-46
2021/06/16 03:00:01;;;;;;;5.40;4.93;;;;;;;;;;5052617;28;20872;-45
2021/06/16 03:02:28;;;;;;;5.30;4.80;;;;;;;;;;5052814;28;20199;-46
2021/06/16 03:04:56;;;;;;;5.40;4.75;;;;;;;;;;5051362;28;20187;-46
2021/06/16 03:07:22;;;;;;;5.72;4.88;;;;;;;;;;5049781;28;20179;-46
2021/06/16 03:09:49;;;;;;;5.60;5.20;;;;;;;;;;5054071;28;20278;-45
2021/06/16 03:12:17;;;;;;;5.38;4.88;;;;;;;;;;5047289;28;20175;-46
2021/06/16 03:14:43;;;;;;;5.78;5.28;;;;;;;;;;5056598;28;20171;-46
2021/06/16 03:17:11;;;;;;;5.47;4.97;;;;;;;;;;5055325;28;20175;-46
2021/06/16 03:19:38;;;;;;;4.88;4.45;;;;;;;;;;5054630;28;20238;-46
2021/06/16 03:22:04;;;;;;;5.00;4.60;;;;;;;;;;5055738;28;20541;-45
2021/06/16 03:24:31;;;;;;;5.10;4.60;;;;;;;;;;5046833;28;20182;-46
2021/06/16 03:26:57;;;;;;;5.13;4.63;;;;;;;;;;5056394;28;20175;-46
2021/06/16 03:29:23;;;;;;;5.93;4.68;;;;;;;;;;5056317;28;20183;-45
2021/06/16 03:31:51;;;;;;;5.85;5.05;;;;;;;;;;5051538;28;20180;-46
2021/06/16 03:34:17;;;;;;;4.95;4.55;;;;;;;;;;5055943;28;20175;-46
2021/06/16 03:36:43;;;;;;;5.65;5.20;;;;;;;;;;5054382;28;20182;-46
2021/06/16 03:39:10;;;;;;;6.20;5.60;;;;;;;;;;5056262;28;20214;-46
2021/06/16 03:41:36;;;;;;;5.43;4.93;;;;;;;;;;5052170;28;20296;-45
2021/06/16 03:44:05;;;;;;;5.60;5.00;;;;;;;;;;5056602;28;20198;-45
2021/06/16 03:46:33;;;;;;;5.80;5.25;;;;;;;;;;5052897;28;20175;-45
2021/06/16 03:49:01;;;;;;;5.82;5.32;;;;;;;;;;5053970;28;20183;-46
2021/06/16 03:51:27;;;;;;;5.85;5.28;;;;;;;;;;5054160;28;20577;-46
2021/06/16 03:53:54;;;;;;;5.80;5.30;;;;;;;;;;5044949;28;20174;-45
2021/06/16 03:56:22;;;;;;;5.28;4.80;;;;;;;;;;5054271;28;20171;-46
2021/06/16 03:58:49;;;;;;;5.95;5.43;;;;;;;;;;5055606;28;20179;-46
2021/06/16 04:01:15;;;;;;;6.85;5.47;;;;;;;;;;5041947;28;20199;-46
2021/06/16 04:03:41;;;;;;;5.95;5.30;;;;;;;;;;5046214;28;20233;-45
2021/06/16 04:06:09;;;;;;;5.50;5.00;;;;;;;;;;5053412;28;20175;-46
2021/06/16 04:08:38;;;;;;;7.70;5.35;;;;;;;;;;5052060;28;20184;-45
2021/06/16 04:11:04;;;;;;;6.03;5.30;;;;;;;;;;5048972;28;20184;-45
2021/06/16 04:13:30;;;;;;;5.55;5.05;;;;;;;;;;5035477;28;20195;-46
2021/06/16 04:15:56;;;;;;;5.85;5.25;;;;;;;;;;5050903;28;20197;-45
2021/06/16 04:18:23;;;;;;;6.93;5.82;;;;;;;;;;5054683;28;20240;-46
2021/06/16 04:20:49;;;;;;;6.82;5.15;;;;;;;;;;5053542;28;20235;-46
2021/06/16 04:23:15;;;;;;;5.53;5.00;;;;;;;;;;5051951;28;20172;-46
2021/06/16 04:25:41;;;;;;;6.28;5.68;;;;;;;;;;5035403;28;20458;-46
2021/06/16 04:28:07;;;;;;;5.20;4.70;;;;;;;;;;5044202;28;20498;-46
2021/06/16 04:30:33;;;;;;;5.40;4.90;;;;;;;;;;5054496;28;20187;-46
2021/06/16 04:32:59;;;;;;;6.15;5.30;;;;;;;;;;5054981;28;20194;-45
2021/06/16 04:35:25;;;;;;;5.93;5.32;;;;;;;;;;5038220;28;20180;-45
2021/06/16 04:37:51;;;;;;;6.88;5.65;;;;;;;;;;5051108;28;20187;-45
2021/06/16 04:40:17;;;;;;;6.60;4.95;;;;;;;;;;5054956;28;20206;-45
2021/06/16 04:42:43;;;;;;;8.93;5.22;;;;;;;;;;5054862;28;20217;-46
2021/06/16 04:45:10;;;;;;;6.55;5.65;;;;;;;;;;5055300;28;20202;-46
2021/06/16 04:47:36;;;;;;;5.45;4.90;;;;;;;;;;5054338;28;20226;-45
2021/06/16 04:50:04;;;;;;;8.55;5.13;;;;;;;;;;5039002;28;20579;-45
2021/06/16 04:52:30;;;;;;;7.40;4.70;;;;;;;;;;5048529;28;20566;-46
2021/06/16 04:54:56;;;;;;;8.18;5.72;;;;;;;;;;5054991;28;20190;-45
2021/06/16 04:57:21;;;;;;;5.68;5.00;;;;;;;;;;5044557;28;20178;-45
2021/06/16 04:59:47;;;;;;;6.07;5.22;;;;;;;;;;5054704;28;20309;-45
2021/06/16 05:02:15;;;;;;;6.70;5.80;;;;;;;;;;5052854;28;20418;-46
2021/06/16 05:04:41;;;;;;;6.38;5.70;;;;;;;;;;5054272;28;20210;-45
2021/06/16 05:07:07;;;;;;;6.68;5.32;;;;;;;;;;5053840;28;20179;-45
2021/06/16 05:09:33;;;;;;;6.65;5.45;;;;;;;;;;5054309;28;20179;-45
2021/06/16 05:11:59;;;;;;;5.18;4.78;;;;;;;;;;5039488;28;20176;-45
2021/06/16 05:14:25;;;;;;;7.80;5.68;;;;;;;;;;5037268;28;20195;-46
2021/06/16 05:16:53;;;;;;;8.63;5.47;;;;;;;;;;5051821;28;20186;-45
2021/06/16 05:19:21;;;;;;;6.40;5.53;;;;;;;;;;5053689;28;20198;-46
2021/06/16 05:21:48;;;;;;;6.32;5.68;;;;;;;;;;5052827;28;20240;-45
2021/06/16 05:24:14;;;;;;;5.68;5.18;;;;;;;;;;5053565;28;20237;-46
2021/06/16 05:26:41;;;;;;;6.28;5.68;;;;;;;;;;5052983;28;20167;-46
2021/06/16 05:29:07;;;;;;;6.03;5.43;;;;;;;;;;5049693;28;20229;-45
2021/06/16 05:31:34;;;;;;;7.47;5.32;;;;;;;;;;5035188;28;20337;-45
2021/06/16 05:34:00;;;;;;;5.80;5.30;;;;;;;;;;5034138;28;20258;-45
2021/06/16 05:36:26;;;;;;;7.13;5.45;;;;;;;;;;5039422;28;20175;-45
2021/06/16 05:38:52;;;;;;;8.10;5.97;;;;;;;;;;5053254;28;20420;-45
2021/06/16 05:41:18;;;;;;;7.82;5.60;;;;;;;;;;5054918;28;20182;-45
2021/06/16 05:43:45;;;;;;;8.65;5.60;;;;;;;;;;5057532;28;20198;-46
2021/06/16 05:46:11;;;;;;;7.00;6.07;;;;;;;;;;5045258;28;20185;-46
2021/06/16 05:48:37;;;;;;;7.82;5.88;;;;;;;;;;5057664;28;20369;-46
2021/06/16 05:51:03;;;;;;;6.75;6.05;;;;;;;;;;5057614;28;20195;-46
2021/06/16 05:53:29;;;;;;;8.20;6.30;;;;;;;;;;5057208;28;20182;-45
2021/06/16 05:55:55;;;;;;;6.28;5.65;;;;;;;;;;5054277;28;20183;-46
2021/06/16 05:58:21;;;;;;;6.25;5.30;;;;;;;;;;5042992;28;20175;-46
2021/06/16 06:00:47;;;;;;;7.05;6.35;;;;;;;;;;5056136;28;20241;-45
2021/06/16 06:03:13;;;;;;;7.22;6.60;;;;;;;;;;5058191;28;20420;-46
2021/06/16 06:05:39;;;;;;;8.23;6.32;;;;;;;;;;5057038;28;20179;-45
2021/06/16 06:08:07;;;;;;;7.63;6.43;;;;;;;;;;5054844;28;20175;-46
2021/06/16 06:10:33;;;;;;;7.05;6.18;;;;;;;;;;5039569;28;20178;-46
2021/06/16 06:12:59;;;;;;;7.35;6.47;;;;;;;;;;5054387;28;20270;-46
2021/06/16 06:15:25;;;;;;;6.28;5.70;;;;;;;;;;5056338;28;20183;-45
2021/06/16 06:17:51;;;;;;;6.25;5.70;;;;;;;;;;5040136;28;20269;-45
2021/06/16 06:20:18;;;;;;;7.05;5.40;;;;;;;;;;5050221;28;20198;-48
2021/06/16 06:22:44;;;;;;;8.13;6.05;;;;;;;;;;5057081;28;20236;-46
2021/06/16 06:25:10;;;;;;;10.45;5.97;;;;;;;;;;5057637;28;20180;-45
2021/06/16 06:27:37;;;;;;;8.27;6.10;;;;;;;;;;5053027;28;20482;-46
2021/06/16 06:30:04;;;;;;;7.20;5.65;;;;;;;;;;5057180;28;20183;-46
2021/06/16 06:32:30;;;;;;;15.60;6.60;;;;;;;;;;5056198;28;20819;-46
2021/06/16 06:34:56;;;;;;;10.43;5.93;;;;;;;;;;5056326;28;20194;-45
2021/06/16 06:37:22;;;;;;;10.18;6.10;;;;;;;;;;5055487;28;20182;-45
2021/06/16 06:39:49;;;;;;;11.38;6.20;;;;;;;;;;5056682;28;20209;-45
2021/06/16 06:42:16;;;;;;;10.57;6.40;;;;;;;;;;5057089;28;20476;-45
2021/06/16 06:44:42;;;;;;;6.72;5.78;;;;;;;;;;5052084;28;20185;-46
2021/06/16 06:47:08;;;;;;;7.68;6.25;;;;;;;;;;5051610;28;20234;-46
2021/06/16 06:49:34;;;;;;;12.10;5.70;;;;;;;;;;5056770;28;20609;-46
2021/06/16 06:52:00;;;;;;;8.45;6.13;;;;;;;;;;5055714;28;20191;-45
2021/06/16 06:54:26;;;;;;;9.10;7.07;;;;;;;;;;5050635;28;20621;-46
2021/06/16 06:56:52;;;;;;;11.05;7.30;;;;;;;;;;5055786;28;20198;-45
2021/06/16 06:59:18;;;;;;;10.80;7.35;;;;;;;;;;5056942;28;20213;-45
2021/06/16 07:01:44;;;;;;;8.40;7.57;;;;;;;;;;5053401;28;20570;-45
2021/06/16 07:04:10;;;;;;;11.93;7.47;;;;;;;;;;5052072;28;20225;-46
2021/06/16 07:06:36;;;;;;;9.18;6.90;;;;;;;;;;5055608;28;20182;-45
2021/06/16 07:09:03;;;;;;;11.23;6.80;;;;;;;;;;5056794;28;20170;-46
2021/06/16 07:11:29;;;;;;;7.65;6.75;;;;;;;;;;5056623;28;20226;-46
2021/06/16 07:13:55;;;;;;;9.23;6.63;;;;;;;;;;5056361;28;20221;-46
2021/06/16 07:16:21;;;;;;;8.95;6.50;;;;;;;;;;5055510;28;20550;-46
2021/06/16 07:18:48;;;;;;;7.72;6.63;;;;;;;;;;5056359;28;20179;-45
2021/06/16 07:21:14;;;;;;;9.45;6.57;;;;;;;;;;5056700;28;20210;-45
2021/06/16 07:23:40;;;;;;;7.38;6.35;;;;;;;;;;5056618;28;20173;-46
2021/06/16 07:26:07;;;;;;;8.02;6.80;;;;;;;;;;5056244;28;20612;-46
2021/06/16 07:28:33;;;;;;;7.25;6.55;;;;;;;;;;5075048;28;20198;-45
2021/06/16 07:30:59;;;;;;;7.65;6.45;;;;;;;;;;5076736;28;20216;-45
2021/06/16 07:33:25;;;;;;;8.30;6.35;;;;;;;;;;5076350;28;20179;-46
2021/06/16 07:35:51;;;;;;;7.55;6.00;;;;;;;;;;5075064;28;20178;-45
2021/06/16 07:38:17;;;;;;;8.60;6.22;;;;;;;;;;5061057;28;20221;-46
2021/06/16 07:40:43;;;;;;;8.98;6.25;;;;;;;;;;5055765;28;20470;-45
2021/06/16 07:43:09;;;;;;;10.45;6.05;;;;;;;;;;5056604;28;20168;-45
2021/06/16 07:45:35;;;;;;;9.13;6.85;;;;;;;;;;5055594;28;20536;-46
2021/06/16 07:48:01;;;;;;;11.70;6.47;;;;;;;;;;5053960;28;20558;-45
2021/06/16 07:50:27;;;;;;;10.35;5.93;;;;;;;;;;5055210;28;20214;-45
2021/06/16 07:52:54;;;;;;;9.35;6.18;;;;;;;;;;5055155;28;20218;-46
2021/06/16 07:55:20;;;;;;;9.55;7.05;;;;;;;;;;5055704;28;20175;-45
2021/06/16 07:57:46;;;;;;;9.73;6.15;;;;;;;;;;5055057;28;20229;-45
2021/06/16 08:00:12;;;;;;;9.30;5.82;;;;;;;;;;5054476;28;20483;-45
2021/06/16 08:02:39;;;;;;;9.23;5.88;;;;;;;;;;5050919;28;20180;-45
2021/06/16 08:05:06;;;;;;;7.88;5.88;;;;;;;;;;5054958;28;20198;-46
2021/06/16 08:07:32;;;;;;;7.18;5.57;;;;;;;;;;5054717;28;20175;-46
2021/06/16 08:09:58;;;;;;;6.55;5.78;;;;;;;;;;5052392;28;20187;-46
2021/06/16 08:12:24;;;;;;;7.35;5.35;;;;;;;;;;5054903;28;20330;-45
2021/06/16 08:14:50;;;;;;;9.18;5.65;;;;;;;;;;5055238;28;20171;-45
2021/06/16 08:17:16;;;;;;;6.82;4.85;;;;;;;;;;5041924;28;20207;-46
2021/06/16 08:19:43;;;;;;;7.70;5.70;;;;;;;;;;5035335;28;20471;-46
2021/06/16 08:22:11;;;;;;;9.38;5.85;;;;;;;;;;5046945;28;20180;-45
2021/06/16 08:24:37;;;;;;;6.50;5.30;;;;;;;;;;5054949;28;20163;-45
2021/06/16 08:27:03;;;;;;;6.53;5.47;;;;;;;;;;5054240;28;20213;-46
2021/06/16 08:29:29;;;;;;;8.50;5.80;;;;;;;;;;5054912;28;20195;-46
2021/06/16 08:31:55;;;;;;;9.73;5.78;;;;;;;;;;5054720;28;20232;-46
2021/06/16 08:34:21;;;;;;;12.93;5.35;;;;;;;;;;5055476;28;20164;-46
2021/06/16 08:36:47;;;;;;;13.00;5.57;;;;;;;;;;5054307;28;20214;-46
2021/06/16 08:39:13;;;;;;;15.80;5.63;;;;;;;;;;5054517;28;20246;-46
2021/06/16 08:41:40;;;;;;;10.63;5.80;;;;;;;;;;5054576;28;20174;-46
2021/06/16 08:44:07;;;;;;;13.52;5.78;;;;;;;;;;5055197;28;20163;-46
2021/06/16 08:46:33;;;;;;;7.93;5.43;;;;;;;;;;5054428;28;20163;-46
2021/06/16 08:49:02;;;;;;;12.52;5.38;;;;;;;;;;5054982;28;20170;-46
2021/06/16 08:51:28;;;;;;;9.75;5.43;;;;;;;;;;5054990;28;20187;-46
2021/06/16 08:53:54;;;;;;;12.10;5.32;;;;;;;;;;5054651;28;20183;-46
2021/06/16 08:56:20;;;;;;;8.70;5.28;;;;;;;;;;5054556;28;20621;-46
2021/06/16 08:58:46;;;;;;;9.48;4.82;;;;;;;;;;5054634;28;20171;-46
2021/06/16 09:01:12;;;;;;;7.93;5.40;;;;;;;;;;5054632;28;20205;-45
2021/06/16 09:03:39;;;;;;;7.30;5.05;;;;;;;;;;5054765;28;20589;-46
2021/06/16 09:06:25;;;;;;;7.55;4.70;;;;;;;;;;5053272;28;20279;-46
2021/06/16 09:08:54;;;;;;;11.63;5.18;;;;;;;;;;5049706;28;20226;-46
2021/06/16 09:11:21;;;;;;;5.82;5.10;;;;;;;;;;5045756;28;20254;-46
2021/06/16 09:13:47;;;;;;;7.38;5.32;;;;;;;;;;5051272;28;20182;-46
2021/06/16 09:16:29;;;;;;;10.27;6.05;;;;;;;;;;5050445;28;20234;-46
2021/06/16 09:18:56;;;;;;;7.85;5.25;;;;;;;;;;5039531;28;20179;-46
2021/06/16 09:21:32;;;;;;;9.30;5.43;;;;;;;;;;5061548;28;20231;-46
2021/06/16 09:23:58;;;;;;;6.57;5.50;;;;;;;;;;5074259;28;20173;-46
2021/06/16 09:26:29;;;;;;;9.30;5.78;;;;;;;;;;5073922;28;20190;-46
2021/06/16 09:28:55;;;;;;;7.25;5.72;;;;;;;;;;5074351;28;20213;-46
2021/06/16 09:31:22;;;;;;;6.25;5.15;;;;;;;;;;5074478;28;20182;-46
2021/06/16 09:33:49;;;;;;;7.82;5.45;;;;;;;;;;5068281;28;20187;-45
2021/06/16 09:36:16;;;;;;;7.50;5.28;;;;;;;;;;5050605;28;20237;-46
2021/06/16 09:38:47;;;;;;;7.38;5.38;;;;;;;;;;5053249;28;20470;-46
2021/06/16 09:41:13;;;;;;;6.82;5.50;;;;;;;;;;5053467;28;20329;-46
2021/06/16 09:43:40;;;;;;;9.15;5.68;;;;;;;;;;5053618;28;20194;-46
2021/06/16 09:46:08;;;;;;;6.40;5.00;;;;;;;;;;5041942;28;20262;-46
2021/06/16 09:48:35;;;;;;;11.95;6.38;;;;;;;;;;5053899;28;20177;-46
2021/06/16 09:51:10;;;;;;;21.33;9.05;;;;;;;;;;5053990;28;20455;-46
2021/06/16 09:53:55;;;;;;;17.95;8.65;;;;;;;;;;5053854;28;20182;-46
2021/06/16 09:56:21;;;;;;;16.23;8.25;;;;;;;;;;5053774;28;20179;-46
2021/06/16 09:58:47;;;;;;;14.32;7.10;;;;;;;;;;5053750;28;20190;-46
2021/06/16 10:01:13;;;;;;;11.98;7.43;;;;;;;;;;5049046;28;20191;-46
2021/06/16 10:03:41;;;;;;;11.00;6.43;;;;;;;;;;5047012;28;20447;-46
2021/06/16 10:06:12;;;;;;;13.52;6.70;;;;;;;;;;5051653;28;20175;-46
2021/06/16 10:08:42;;;;;;;12.95;6.22;;;;;;;;;;5043580;28;20254;-46
2021/06/16 10:11:09;;;;;;;18.98;7.10;;;;;;;;;;5044365;28;20225;-46
2021/06/16 10:13:36;;;;;;;9.57;6.75;;;;;;;;;;5040900;28;20176;-46
2021/06/16 10:16:03;;;;;;;12.02;7.28;;;;;;;;;;5034866;28;20467;-45
2021/06/16 10:18:33;;;;;;;7.28;6.55;;;;;;;;;;5047873;28;20464;-46
2021/06/16 10:20:59;;;;;;;10.05;7.32;;;;;;;;;;5045539;28;20214;-46
2021/06/16 10:23:26;;;;;;;10.45;6.70;;;;;;;;;;5042469;28;20421;-46
2021/06/16 10:25:52;;;;;;;10.05;7.45;;;;;;;;;;5047585;28;20181;-46
2021/06/16 10:28:20;;;;;;;11.82;7.03;;;;;;;;;;5052619;28;20191;-46
2021/06/16 10:30:52;;;;;;;7.88;6.82;;;;;;;;;;5056381;28;20217;-46
2021/06/16 10:33:29;;;;;;;9.60;6.95;;;;;;;;;;5055261;28;20217;-46
2021/06/16 10:36:14;;;;;;;13.73;7.20;;;;;;;;;;5047226;28;20172;-46
2021/06/16 10:38:41;;;;;;;8.50;6.97;;;;;;;;;;5048433;28;20450;-46
2021/06/16 10:41:08;;;;;;;11.75;6.35;;;;;;;;;;5054718;28;20187;-46
2021/06/16 10:43:35;;;;;;;7.25;6.43;;;;;;;;;;5037751;28;20215;-46
2021/06/16 10:46:04;;;;;;;10.32;6.13;;;;;;;;;;5056566;28;20184;-46
2021/06/16 10:48:43;;;;;;;8.18;7.32;;;;;;;;;;5051035;28;20171;-46
2021/06/16 10:51:09;;;;;;;8.98;7.32;;;;;;;;;;5037364;28;20179;-46
2021/06/16 10:53:35;;;;;;;9.55;7.10;;;;;;;;;;5043382;28;20172;-46
2021/06/16 10:56:01;;;;;;;9.02;6.93;;;;;;;;;;5038256;28;20183;-46
2021/06/16 10:58:30;;;;;;;10.00;7.20;;;;;;;;;;5046875;28;20179;-46
2021/06/16 11:01:16;;;;;;;9.40;7.25;;;;;;;;;;5038578;28;20207;-46
2021/06/16 11:03:50;;;;;;;8.30;6.70;;;;;;;;;;5037049;28;20520;-46
2021/06/16 11:06:35;;;;;;;7.07;6.30;;;;;;;;;;5036043;28;20556;-46
2021/06/16 11:09:08;;;;;;;8.65;6.68;;;;;;;;;;5054075;28;20171;-46
2021/06/16 11:11:47;;;;;;;9.50;7.20;;;;;;;;;;5048753;28;20420;-46
2021/06/16 11:14:32;;;;;;;7.47;6.63;;;;;;;;;;5056501;28;20179;-46
2021/06/16 11:16:58;;;;;;;9.10;6.90;;;;;;;;;;5055907;28;20178;-46
2021/06/16 11:19:25;;;;;;;7.15;6.32;;;;;;;;;;5036436;28;20179;-46
2021/06/16 11:21:56;;;;;;;11.73;7.25;;;;;;;;;;5046645;28;20267;-46
2021/06/16 11:24:22;;;;;;;10.05;7.22;;;;;;;;;;5056439;28;20258;-46
2021/06/16 11:26:50;;;;;;;7.45;6.75;;;;;;;;;;5055789;28;20195;-46
2021/06/16 11:29:52;;;;;;;7.25;6.38;;;;;;;;;;5056036;28;20565;-46
2021/06/16 11:32:18;;;;;;;9.63;6.93;;;;;;;;;;4984037;28;20562;-46
2021/06/16 11:34:50;;;;;;;6.60;5.90;;;;;;;;;;5024164;28;20187;-47
2021/06/16 11:37:35;;;;;;;7.97;6.53;;;;;;;;;;5037904;28;20291;-46
2021/06/16 11:40:04;;;;;;;8.02;6.18;;;;;;;;;;5047917;28;20210;-46
2021/06/16 11:42:30;;;;;;;8.07;6.68;;;;;;;;;;5056241;28;20163;-46
2021/06/16 11:44:56;;;;;;;8.07;6.38;;;;;;;;;;5056207;28;20683;-46
2021/06/16 11:47:22;;;;;;;10.48;6.75;;;;;;;;;;5055339;28;20183;-46
2021/06/16 11:49:48;;;;;;;7.72;6.63;;;;;;;;;;5055305;28;20179;-46
2021/06/16 11:52:19;;;;;;;8.77;6.93;;;;;;;;;;5056225;28;20187;-45
2021/06/16 11:54:47;;;;;;;7.50;6.53;;;;;;;;;;5056287;28;20171;-46
2021/06/16 11:57:14;;;;;;;7.80;6.10;;;;;;;;;;5055362;28;20639;-46
2021/06/16 11:59:46;;;;;;;8.20;6.78;;;;;;;;;;5055810;28;20198;-46
2021/06/16 12:02:29;;;;;;;8.02;6.93;;;;;;;;;;5055635;28;20498;-46
2021/06/16 12:05:03;;;;;;;7.80;6.75;;;;;;;;;;5055850;28;20482;-46
2021/06/16 12:07:52;;;;;;;7.53;6.47;;;;;;;;;;5054937;28;20197;-46
2021/06/16 12:10:25;;;;;;;6.90;6.22;;;;;;;;;;5054942;28;20459;-46
2021/06/16 12:12:51;;;;;;;6.75;6.13;;;;;;;;;;5041033;28;20175;-46
2021/06/16 12:15:19;;;;;;;8.35;6.47;;;;;;;;;;5055824;28;20167;-46
2021/06/16 12:17:54;;;;;;;7.70;6.40;;;;;;;;;;5054627;28;20565;-46
2021/06/16 12:20:20;;;;;;;8.52;6.47;;;;;;;;;;5055657;28;20217;-46
2021/06/16 12:22:46;;;;;;;8.43;6.28;;;;;;;;;;5054917;28;20167;-46
2021/06/16 12:25:45;;;;;;;7.32;6.60;;;;;;;;;;5055175;28;20182;-46
2021/06/16 12:28:11;;;;;;;7.50;6.70;;;;;;;;;;5013816;28;20187;-46
2021/06/16 12:30:38;;;;;;;9.68;6.82;;;;;;;;;;5055499;28;20199;-46
2021/06/16 12:33:18;;;;;;;6.90;6.30;;;;;;;;;;5054992;28;20198;-46
2021/06/16 12:35:55;;;;;;;8.82;6.57;;;;;;;;;;5054409;28;20171;-46
2021/06/16 12:38:44;;;;;;;7.80;6.72;;;;;;;;;;5053886;28;20178;-46
2021/06/16 12:41:30;;;;;;;7.97;6.50;;;;;;;;;;5055011;28;20292;-46
2021/06/16 12:44:15;;;;;;;8.40;6.40;;;;;;;;;;5054920;28;20165;-46
2021/06/16 12:46:59;;;;;;;7.97;6.18;;;;;;;;;;5054468;28;20602;-46
2021/06/16 12:49:26;;;;;;;8.02;6.22;;;;;;;;;;5034993;28;20210;-46
2021/06/16 12:51:54;;;;;;;7.90;7.10;;;;;;;;;;5038194;28;20222;-46
2021/06/16 12:54:31;;;;;;;10.07;6.75;;;;;;;;;;5054637;28;20202;-46
2021/06/16 12:57:08;;;;;;;9.02;6.47;;;;;;;;;;5053781;28;20573;-46
2021/06/16 12:59:53;;;;;;;10.15;6.82;;;;;;;;;;5054692;28;20198;-46
2021/06/16 13:02:28;;;;;;;8.02;6.60;;;;;;;;;;5054542;28;20193;-46
2021/06/16 13:04:54;;;;;;;7.25;6.55;;;;;;;;;;5054274;28;20216;-46
2021/06/16 13:07:21;;;;;;;9.95;6.75;;;;;;;;;;5053669;28;20179;-46
2021/06/16 13:09:59;;;;;;;7.50;5.97;;;;;;;;;;5034825;28;20233;-46
2021/06/16 13:12:25;;;;;;;9.25;5.68;;;;;;;;;;5051844;28;20211;-46
2021/06/16 13:14:58;;;;;;;7.72;6.53;;;;;;;;;;5054150;28;20202;-46
2021/06/16 13:17:24;;;;;;;8.32;6.05;;;;;;;;;;5053147;28;20171;-47
2021/06/16 13:19:55;;;;;;;7.05;5.88;;;;;;;;;;5054422;28;20792;-46
2021/06/16 13:22:30;;;;;;;9.60;5.93;;;;;;;;;;5054430;28;20169;-46
2021/06/16 13:24:59;;;;;;;6.50;5.88;;;;;;;;;;5054005;28;20213;-46
2021/06/16 13:27:25;;;;;;;6.32;5.72;;;;;;;;;;5053593;28;20251;-46
2021/06/16 13:29:59;;;;;;;7.13;6.00;;;;;;;;;;5053720;28;20647;-46
2021/06/16 13:32:25;;;;;;;9.02;6.07;;;;;;;;;;5054300;28;20179;-46
2021/06/16 13:34:51;;;;;;;11.60;6.40;;;;;;;;;;5054362;28;20237;-46
2021/06/16 13:37:17;;;;;;;11.00;6.00;;;;;;;;;;5053120;28;20199;-46
2021/06/16 13:39:43;;;;;;;16.77;6.82;;;;;;;;;;5053943;28;20234;-46
2021/06/16 13:42:19;;;;;;;10.35;6.35;;;;;;;;;;5053984;28;20197;-46
2021/06/16 13:44:45;;;;;;;15.45;6.68;;;;;;;;;;5033819;28;20602;-46
2021/06/16 13:47:11;;;;;;;14.68;6.35;;;;;;;;;;5039439;28;20257;-46
2021/06/16 13:49:37;;;;;;;8.63;6.18;;;;;;;;;;5054176;28;20266;-46
2021/06/16 13:52:03;;;;;;;8.88;6.47;;;;;;;;;;5053753;28;20198;-46
2021/06/16 13:54:29;;;;;;;10.00;5.80;;;;;;;;;;5053954;28;20175;-46
2021/06/16 13:56:56;;;;;;;8.02;5.53;;;;;;;;;;5052881;28;20573;-47
2021/06/16 13:59:22;;;;;;;9.63;6.40;;;;;;;;;;5053247;28;20605;-46
2021/06/16 14:01:48;;;;;;;9.52;5.95;;;;;;;;;;5054098;28;20179;-46
2021/06/16 14:04:14;;;;;;;8.70;6.50;;;;;;;;;;5057627;28;20195;-46
2021/06/16 14:06:41;;;;;;;8.32;5.78;;;;;;;;;;5056971;28;20171;-46
2021/06/16 14:09:10;;;;;;;7.60;5.50;;;;;;;;;;5057656;28;20203;-46
2021/06/16 14:11:36;;;;;;;9.30;6.03;;;;;;;;;;5055574;28;20178;-46
2021/06/16 14:14:03;;;;;;;10.57;6.30;;;;;;;;;;5057952;28;20171;-46
2021/06/16 14:16:29;;;;;;;6.65;5.82;;;;;;;;;;5057121;28;20205;-47
2021/06/16 14:18:55;;;;;;;7.72;6.32;;;;;;;;;;5057034;28;20211;-46
2021/06/16 14:21:21;;;;;;;8.43;5.43;;;;;;;;;;5057489;28;20206;-46
2021/06/16 14:23:47;;;;;;;7.00;5.57;;;;;;;;;;5057405;28;20175;-46
2021/06/16 14:26:13;;;;;;;8.07;5.43;;;;;;;;;;5056799;28;20694;-46
2021/06/16 14:28:39;;;;;;;5.70;5.20;;;;;;;;;;5057308;28;20562;-46
2021/06/16 14:31:05;;;;;;;5.72;5.22;;;;;;;;;;5057475;28;20179;-46
2021/06/16 14:33:31;;;;;;;7.35;5.50;;;;;;;;;;5057334;28;20285;-46
2021/06/16 14:35:57;;;;;;;6.32;5.35;;;;;;;;;;5056950;28;20180;-46
2021/06/16 14:38:23;;;;;;;7.25;5.57;;;;;;;;;;5056789;28;20179;-46
2021/06/16 14:40:49;;;;;;;7.60;5.72;;;;;;;;;;5056823;28;20218;-46
2021/06/16 14:43:15;;;;;;;7.38;5.30;;;;;;;;;;5057245;28;20474;-46
2021/06/16 14:45:41;;;;;;;9.68;5.32;;;;;;;;;;5057337;28;20178;-46